Time;durP1;ratioP1;P1;durP2;ratioP2;P2;SDS_P1;SDS_P2;PMS_P1;PMS_P2;Temp;Humidity;BMP_temperature;BMP_pressure;BME280_temperature;BME280_humidity;BME280_pressure;Samples;Min_cycle;Max_cycle;Signal;HPM_P1;HPM_P2
2023/02/19 00:01:26;;;;;;;0.77;0.70;;;;;;;11.73;58.40;97876.75;6312603;28;20688;-38
2023/02/19 00:04:28;;;;;;;2.10;0.93;;;;;;;11.73;58.91;97874.06;6330854;27;20243;-38
2023/02/19 00:07:30;;;;;;;0.80;0.80;;;;;;;11.79;58.79;97881.09;6331680;27;20730;-37
2023/02/19 00:10:32;;;;;;;1.00;0.70;;;;;;;11.76;59.19;97877.03;6331020;27;20329;-37
2023/02/19 00:13:35;;;;;;;1.57;1.00;;;;;;;11.73;58.69;97876.75;6324785;27;20241;-37
2023/02/19 00:16:38;;;;;;;1.37;0.70;;;;;;;11.71;58.86;97908.19;6328600;28;20235;-38
2023/02/19 00:19:40;;;;;;;0.80;0.80;;;;;;;11.54;59.27;97860.16;6329324;27;20378;-38
2023/02/19 00:22:42;;;;;;;0.70;0.70;;;;;;;11.59;59.13;97878.94;6330500;27;20264;-37
2023/02/19 00:25:44;;;;;;;0.67;0.67;;;;;;;11.73;58.90;97903.44;6330191;27;20319;-37
2023/02/19 00:28:48;;;;;;;1.70;0.70;;;;;;;11.73;59.42;97916.78;6333361;27;20281;-37
2023/02/19 00:31:50;;;;;;;1.23;0.80;;;;;;;11.73;59.58;97901.56;6331324;27;20327;-38
2023/02/19 00:34:53;;;;;;;0.93;0.90;;;;;;;11.69;59.67;97913.78;6329947;27;20614;-37
2023/02/19 00:37:55;;;;;;;0.67;0.67;;;;;;;11.59;60.07;97900.28;6331316;27;20232;-37
2023/02/19 00:41:00;;;;;;;2.20;0.90;;;;;;;11.73;60.19;97920.25;6329450;28;20250;-38
2023/02/19 00:44:05;;;;;;;0.97;0.97;;;;;;;11.64;60.37;97913.69;6328346;28;20601;-38
2023/02/19 00:47:07;;;;;;;1.10;1.00;;;;;;;11.63;60.68;97914.75;6330154;27;20574;-37
2023/02/19 00:50:12;;;;;;;0.77;0.70;;;;;;;11.46;60.70;97889.91;6326450;27;20216;-37
2023/02/19 00:53:15;;;;;;;1.50;0.70;;;;;;;11.63;60.54;97926.22;6329629;27;20240;-38
2023/02/19 00:56:17;;;;;;;1.20;1.10;;;;;;;11.51;61.76;97912.13;6330102;27;20236;-37
2023/02/19 00:59:19;;;;;;;1.37;0.90;;;;;;;11.53;61.59;97915.38;6328927;27;20221;-38
2023/02/19 01:02:21;;;;;;;1.10;1.00;;;;;;;11.52;61.65;97924.41;6311353;27;20568;-38
2023/02/19 01:05:23;;;;;;;1.43;0.80;;;;;;;11.38;61.93;97896.47;6321402;27;20232;-37
2023/02/19 01:08:26;;;;;;;0.63;0.63;;;;;;;11.47;62.34;97920.88;6325159;28;20225;-37
2023/02/19 01:11:28;;;;;;;0.97;0.90;;;;;;;11.42;62.84;97916.25;6329442;27;20422;-38
2023/02/19 01:14:30;;;;;;;0.87;0.87;;;;;;;11.30;63.11;97907.53;6310201;28;20229;-37
2023/02/19 01:17:34;;;;;;;1.23;1.13;;;;;;;11.24;64.40;97905.81;6326519;27;20233;-38
2023/02/19 01:20:39;;;;;;;1.07;0.93;;;;;;;11.17;64.64;97899.81;6325490;28;20328;-38
2023/02/19 01:23:42;;;;;;;1.27;1.17;;;;;;;11.17;65.17;97897.94;6326626;28;20225;-38
2023/02/19 01:26:44;;;;;;;1.83;1.10;;;;;;;11.09;65.61;97895.69;6331618;27;20257;-37
2023/02/19 01:29:46;;;;;;;0.90;0.90;;;;;;;11.05;65.62;97907.88;6326460;28;20317;-38
2023/02/19 01:32:48;;;;;;;0.90;0.90;;;;;;;11.04;65.68;97898.28;6328784;27;20259;-38
2023/02/19 01:35:52;;;;;;;3.60;1.10;;;;;;;11.01;65.65;97896.88;6327728;28;20232;-37
2023/02/19 01:38:54;;;;;;;1.37;1.23;;;;;;;10.96;65.77;97901.31;6312307;28;20686;-37
2023/02/19 01:41:57;;;;;;;1.20;1.10;;;;;;;11.02;65.56;97881.69;6326288;27;20279;-37
2023/02/19 01:45:20;;;;;;;1.73;1.60;;;;;;;10.97;66.61;97890.41;6329975;27;20224;-38
2023/02/19 01:48:28;;;;;;;1.30;1.20;;;;;;;10.98;66.95;97894.69;6328122;27;20228;-38
2023/02/19 01:51:32;;;;;;;1.40;1.30;;;;;;;10.91;66.85;97886.03;6328313;27;20285;-37
2023/02/19 01:54:37;;;;;;;1.40;1.30;;;;;;;10.76;67.50;97875.09;6325722;27;20586;-37
2023/02/19 01:57:45;;;;;;;1.80;1.50;;;;;;;10.66;67.45;97880.22;6317396;28;20235;-37
2023/02/19 02:00:50;;;;;;;1.60;1.50;;;;;;;10.74;67.53;97875.34;6326841;28;20252;-37
2023/02/19 02:03:53;;;;;;;1.43;1.33;;;;;;;10.78;67.20;97873.78;6329049;28;20234;-38
2023/02/19 02:06:56;;;;;;;1.63;1.53;;;;;;;10.80;66.94;97882.38;6326706;28;20236;-37
2023/02/19 02:13:19;;;;;;;1.80;1.70;;;;;;;10.78;66.53;97875.66;6333285;27;20243;-37
2023/02/19 02:16:34;;;;;;;1.70;1.60;;;;;;;10.76;66.56;97848.44;6333788;27;20737;-37
2023/02/19 02:19:53;;;;;;;1.77;1.57;;;;;;;10.76;66.39;97856.44;6328886;27;20247;-37
2023/02/19 02:22:57;;;;;;;2.33;1.73;;;;;;;10.75;66.86;97857.50;6324729;28;20715;-38
2023/02/19 02:26:14;;;;;;;1.73;1.63;;;;;;;10.77;66.86;97852.72;6332019;27;20251;-37
2023/02/19 02:29:31;;;;;;;1.90;1.80;;;;;;;10.76;66.86;97856.44;6331587;27;20229;-37
2023/02/19 02:32:52;;;;;;;1.93;1.50;;;;;;;10.70;66.92;97841.41;6329008;28;20237;-37
2023/02/19 02:36:04;;;;;;;1.60;1.50;;;;;;;10.74;66.72;97854.03;6316072;27;20236;-37
2023/02/19 02:39:10;;;;;;;2.70;1.60;;;;;;;10.61;67.31;97826.84;6304296;28;20255;-37
2023/02/19 02:42:27;;;;;;;1.30;1.20;;;;;;;10.78;66.76;97833.81;6314267;27;20256;-37
2023/02/19 02:45:38;;;;;;;1.90;1.77;;;;;;;10.67;67.40;97832.03;6314809;27;20308;-37
2023/02/19 02:49:02;;;;;;;1.40;1.30;;;;;;;10.73;67.54;97831.06;6315960;27;20284;-37
2023/02/19 02:55:01;;;;;;;2.17;2.00;;;;;;;10.62;68.05;97839.13;6316561;27;20239;-37
2023/02/19 02:55:33;;;;;;;1.23;1.13;;;;;;;10.73;67.55;97832.94;6331399;27;20636;-37
2023/02/19 02:58:36;;;;;;;1.60;1.50;;;;;;;10.38;68.05;97775.28;6309592;28;20242;-37
2023/02/19 03:08:40;;;;;;;1.60;1.50;;;;;;;10.38;68.68;97788.59;6327665;28;20231;-37
2023/02/19 03:22:08;;;;;;;1.30;1.20;;;;;;;10.58;68.49;97818.28;6327637;27;20270;-38
2023/02/19 03:32:28;;;;;;;1.63;1.53;;;;;;;10.50;68.88;97818.66;6333733;27;20235;-37
2023/02/19 03:35:33;;;;;;;1.40;1.30;;;;;;;10.46;69.21;97809.53;6312170;28;20240;-37
2023/02/19 03:39:03;;;;;;;1.60;1.50;;;;;;;10.31;69.04;97794.06;6329433;27;20277;-37
2023/02/19 03:42:09;;;;;;;1.70;1.60;;;;;;;10.47;69.67;97823.66;6312797;28;20239;-37
2023/02/19 03:45:40;;;;;;;2.10;1.77;;;;;;;10.40;69.57;97815.00;6315598;28;20227;-37
2023/02/19 03:49:01;;;;;;;1.50;1.40;;;;;;;10.42;69.63;97821.69;6335292;27;20346;-37
2023/02/19 03:52:19;;;;;;;1.53;1.43;;;;;;;10.42;70.04;97802.25;6329795;27;20738;-37
2023/02/19 03:55:35;;;;;;;1.60;1.50;;;;;;;10.22;70.13;97784.00;6304248;28;20627;-37
2023/02/19 03:59:14;;;;;;;1.73;1.63;;;;;;;10.26;70.37;97803.81;6307759;28;20235;-37
2023/02/19 04:02:22;;;;;;;1.40;1.30;;;;;;;10.31;70.28;97798.59;6311459;28;20229;-37
2023/02/19 04:05:28;;;;;;;1.47;0.87;;;;;;;10.39;69.97;97802.72;6332674;27;20688;-37
2023/02/19 04:08:34;;;;;;;1.40;1.30;;;;;;;10.21;70.05;97812.47;6313731;27;20231;-37
2023/02/19 04:11:39;;;;;;;1.40;1.30;;;;;;;10.36;69.95;97806.69;6314020;27;20600;-37
2023/02/19 04:15:11;;;;;;;1.50;1.40;;;;;;;10.40;69.79;97807.03;6310380;27;20241;-38
2023/02/19 04:18:17;;;;;;;1.37;1.20;;;;;;;10.35;70.09;97804.25;6328509;27;20754;-37
2023/02/19 04:21:21;;;;;;;1.90;1.20;;;;;;;10.39;69.85;97805.38;6329677;27;20223;-37
2023/02/19 04:24:36;;;;;;;1.57;1.47;;;;;;;10.17;70.44;97774.06;6330151;27;20447;-38
2023/02/19 04:27:39;;;;;;;2.07;1.27;;;;;;;10.34;70.57;97800.75;6313360;28;20835;-38
2023/02/19 04:30:42;;;;;;;1.10;1.00;;;;;;;10.11;70.76;97758.22;6329859;27;20243;-38
2023/02/19 04:33:44;;;;;;;1.50;1.40;;;;;;;10.23;70.72;97781.09;6327330;27;20595;-38
2023/02/19 04:36:46;;;;;;;0.93;0.93;;;;;;;10.37;70.89;97794.97;6330056;27;20581;-38
2023/02/19 04:39:48;;;;;;;1.27;1.10;;;;;;;10.31;71.12;97777.28;6329599;27;20593;-38
2023/02/19 04:42:50;;;;;;;1.40;1.30;;;;;;;10.29;70.75;97779.38;6327421;27;20639;-38
2023/02/19 04:45:52;;;;;;;1.23;1.13;;;;;;;10.30;70.85;97773.03;6328716;27;20616;-38
2023/02/19 04:48:54;;;;;;;1.20;1.10;;;;;;;10.36;70.43;97782.72;6324787;27;20884;-38
2023/02/19 04:51:56;;;;;;;1.50;1.40;;;;;;;10.35;70.14;97783.75;6328411;28;20236;-39
2023/02/19 04:54:58;;;;;;;1.13;1.03;;;;;;;10.33;70.33;97777.84;6328969;28;20240;-38
2023/02/19 04:58:00;;;;;;;1.40;1.30;;;;;;;10.34;70.16;97774.13;6327602;28;20227;-38
2023/02/19 05:01:03;;;;;;;1.10;1.00;;;;;;;10.33;69.81;97769.88;6328295;27;20867;-38
2023/02/19 05:04:05;;;;;;;1.40;1.30;;;;;;;10.27;70.25;97768.97;6330698;27;20235;-38
2023/02/19 05:07:07;;;;;;;1.60;1.40;;;;;;;10.23;69.66;97789.09;6331326;27;20621;-38
2023/02/19 05:10:09;;;;;;;1.40;1.30;;;;;;;10.27;69.55;97773.47;6331145;27;20261;-38
2023/02/19 05:13:11;;;;;;;2.90;1.40;;;;;;;10.33;69.30;97757.34;6328196;27;20234;-38
2023/02/19 05:16:17;;;;;;;1.60;1.50;;;;;;;10.30;69.37;97757.03;6321143;28;20315;-38
2023/02/19 05:19:19;;;;;;;1.90;1.60;;;;;;;10.40;68.84;97751.91;6329269;27;20631;-38
2023/02/19 05:22:21;;;;;;;1.70;1.50;;;;;;;10.42;68.51;97752.47;6333769;27;20741;-38
2023/02/19 05:25:23;;;;;;;1.47;1.37;;;;;;;10.33;68.53;97746.69;6329219;27;20697;-38
2023/02/19 05:28:27;;;;;;;1.90;1.57;;;;;;;10.33;68.86;97738.72;6326128;27;20236;-38
2023/02/19 05:31:32;;;;;;;2.23;1.70;;;;;;;10.05;68.99;97696.91;6329413;27;20307;-37
2023/02/19 05:34:34;;;;;;;1.70;1.60;;;;;;;10.33;69.05;97719.28;6324634;27;20227;-38
2023/02/19 05:37:36;;;;;;;1.73;1.40;;;;;;;10.35;68.63;97713.72;6327364;27;20228;-37
2023/02/19 05:40:39;;;;;;;2.27;1.43;;;;;;;10.34;68.81;97712.88;6326927;27;20228;-38
2023/02/19 05:43:43;;;;;;;2.50;1.57;;;;;;;10.27;69.04;97721.03;6327094;28;20572;-38
2023/02/19 05:46:45;;;;;;;2.30;1.67;;;;;;;10.31;68.93;97714.19;6327505;28;20398;-38
2023/02/19 05:49:47;;;;;;;1.40;1.30;;;;;;;10.30;69.03;97714.44;6331613;27;20706;-37
2023/02/19 05:52:49;;;;;;;2.93;1.50;;;;;;;10.30;69.15;97703.78;6328807;28;20436;-38
2023/02/19 05:55:52;;;;;;;1.50;1.40;;;;;;;10.30;68.84;97699.28;6330856;27;20231;-38
2023/02/19 05:58:55;;;;;;;1.50;1.40;;;;;;;10.29;69.38;97704.81;6329764;28;20603;-38
2023/02/19 06:01:57;;;;;;;2.20;1.37;;;;;;;10.18;69.49;97716.28;6332061;28;20833;-38
2023/02/19 06:04:59;;;;;;;1.40;1.30;;;;;;;10.30;68.80;97693.94;6330147;27;20359;-38
2023/02/19 06:08:01;;;;;;;1.73;1.33;;;;;;;10.35;68.64;97690.56;6327348;28;20600;-38
2023/02/19 06:11:04;;;;;;;1.87;1.47;;;;;;;10.32;68.83;97701.69;6314173;28;20236;-38
2023/02/19 06:14:06;;;;;;;1.50;1.27;;;;;;;10.28;68.60;97701.34;6325842;28;20237;-38
2023/02/19 06:17:08;;;;;;;1.80;1.53;;;;;;;10.40;67.92;97680.00;6327111;28;20603;-38
2023/02/19 06:20:10;;;;;;;1.10;1.00;;;;;;;10.39;67.75;97677.56;6328297;28;20597;-38
2023/02/19 06:23:12;;;;;;;1.43;1.30;;;;;;;10.17;67.45;97672.91;6303650;28;20577;-38
2023/02/19 06:26:17;;;;;;;2.90;1.27;;;;;;;10.34;67.98;97694.25;6326400;28;20309;-38
2023/02/19 06:29:19;;;;;;;1.03;0.90;;;;;;;10.51;66.22;97692.44;6326207;28;20319;-38
2023/02/19 06:32:22;;;;;;;3.17;1.40;;;;;;;10.54;66.16;97691.97;6327873;28;20254;-38
2023/02/19 06:35:24;;;;;;;1.40;1.27;;;;;;;10.50;65.67;97695.34;6325193;28;20267;-38
2023/02/19 06:38:27;;;;;;;1.47;1.37;;;;;;;10.67;65.45;97693.50;6327820;28;20232;-38
2023/02/19 06:41:29;;;;;;;1.53;1.10;;;;;;;10.66;65.06;97691.88;6324526;28;20768;-38
2023/02/19 06:44:31;;;;;;;1.20;1.10;;;;;;;10.71;64.88;97704.47;6325365;28;20237;-38
2023/02/19 06:47:33;;;;;;;1.73;1.30;;;;;;;10.70;64.85;97717.00;6328120;28;20228;-38
2023/02/19 06:50:35;;;;;;;1.47;1.30;;;;;;;10.45;64.52;97650.78;6326453;28;20587;-43
2023/02/19 06:53:37;;;;;;;1.57;1.30;;;;;;;10.76;64.87;97704.56;6326574;28;20228;-41
2023/02/19 06:56:40;;;;;;;1.57;1.30;;;;;;;10.47;64.63;97667.31;6329462;27;20595;-38
2023/02/19 06:59:43;;;;;;;1.30;1.10;;;;;;;10.67;63.84;97688.16;6327495;27;20244;-38
2023/02/19 07:02:44;;;;;;;1.80;1.43;;;;;;;10.94;63.91;97724.84;6331256;27;20286;-38
2023/02/19 07:05:47;;;;;;;1.20;1.10;;;;;;;10.91;63.70;97723.44;6335553;27;20708;-38
2023/02/19 07:08:50;;;;;;;1.10;1.00;;;;;;;10.88;64.02;97705.25;6330858;27;20235;-38
2023/02/19 07:11:53;;;;;;;1.77;1.00;;;;;;;10.65;63.43;97681.47;6315332;28;20228;-38
2023/02/19 07:14:55;;;;;;;1.20;1.10;;;;;;;10.96;63.27;97723.53;6329309;27;20643;-38
2023/02/19 07:17:58;;;;;;;0.97;0.70;;;;;;;10.87;63.21;97724.97;6330070;27;20221;-38
2023/02/19 07:21:08;;;;;;;0.60;0.60;;;;;;;10.83;63.18;97727.31;6331813;27;20235;-37
2023/02/19 07:24:11;;;;;;;1.97;0.60;;;;;;;10.98;62.45;97755.25;6327968;27;20757;-37
2023/02/19 07:27:13;;;;;;;0.53;0.53;;;;;;;10.93;63.26;97742.66;6331163;27;20682;-37
2023/02/19 07:30:15;;;;;;;1.60;0.47;;;;;;;10.91;63.26;97715.44;6331525;27;20243;-38
2023/02/19 07:33:18;;;;;;;0.80;0.60;;;;;;;10.81;63.89;97750.75;6330768;27;20248;-37
2023/02/19 07:36:22;;;;;;;1.47;0.70;;;;;;;10.88;63.43;97729.25;6329560;27;20634;-38
2023/02/19 07:39:24;;;;;;;0.40;0.40;;;;;;;10.77;64.54;97717.63;6330078;27;20595;-37
2023/02/19 07:42:26;;;;;;;1.27;0.50;;;;;;;10.82;64.32;97728.38;6329156;27;20747;-38
2023/02/19 07:45:28;;;;;;;0.40;0.40;;;;;;;10.89;64.34;97720.22;6313076;27;20227;-38
2023/02/19 07:48:30;;;;;;;0.67;0.60;;;;;;;10.77;63.91;97683.00;6330187;27;20235;-38
2023/02/19 07:51:32;;;;;;;1.17;0.60;;;;;;;11.17;63.70;97719.31;6328375;28;20226;-38
2023/02/19 07:54:34;;;;;;;2.13;0.60;;;;;;;11.27;63.35;97718.66;6311344;28;20695;-38
2023/02/19 07:57:36;;;;;;;0.60;0.50;;;;;;;11.40;62.99;97714.84;6333274;27;20311;-38
2023/02/19 08:00:39;;;;;;;0.40;0.40;;;;;;;11.50;63.23;97734.44;6332246;27;20232;-38
2023/02/19 08:03:41;;;;;;;0.50;0.50;;;;;;;11.44;63.31;97718.63;6328672;27;20661;-38
2023/02/19 08:06:43;;;;;;;1.37;0.60;;;;;;;11.41;62.42;97730.59;6331913;27;20235;-38
2023/02/19 08:13:17;;;;;;;0.50;0.50;;;;;;;11.31;62.43;97723.25;6325945;27;20589;-37
2023/02/19 08:13:24;;;;;;;0.60;0.60;;;;;;;11.05;62.76;97722.06;6324738;27;20735;-37
2023/02/19 08:16:26;;;;;;;0.90;0.37;;;;;;;11.31;62.29;97763.25;6327203;27;20236;-38
2023/02/19 08:19:43;;;;;;;0.57;0.47;;;;;;;11.29;62.93;97764.56;6332668;27;20307;-38
2023/02/19 08:22:45;;;;;;;0.83;0.40;;;;;;;11.16;63.79;97764.88;6329332;27;20239;-38
2023/02/19 08:25:49;;;;;;;0.30;0.30;;;;;;;11.24;63.28;97767.16;6328673;28;20392;-38
2023/02/19 08:28:51;;;;;;;0.73;0.43;;;;;;;11.12;63.06;97775.22;6328014;27;20232;-38
2023/02/19 08:31:53;;;;;;;0.30;0.30;;;;;;;11.28;63.10;97755.75;6319904;28;20608;-38
2023/02/19 08:34:55;;;;;;;0.60;0.60;;;;;;;11.50;62.63;97763.78;6327559;27;20434;-38
2023/02/19 08:37:58;;;;;;;0.40;0.40;;;;;;;11.49;62.88;97772.84;6329326;27;20714;-38
2023/02/19 08:41:03;;;;;;;0.40;0.40;;;;;;;11.45;63.21;97769.06;6321864;27;20327;-38
2023/02/19 08:44:05;;;;;;;0.53;0.53;;;;;;;11.40;63.18;97760.19;6328591;27;20230;-38
2023/02/19 08:47:07;;;;;;;0.50;0.50;;;;;;;11.24;62.60;97737.81;6328172;27;20658;-38
2023/02/19 08:50:11;;;;;;;0.80;0.40;;;;;;;11.33;62.26;97787.84;6328943;27;20267;-38
2023/02/19 08:53:13;;;;;;;0.57;0.50;;;;;;;11.35;62.81;97748.38;6330585;27;20227;-37
2023/02/19 08:56:16;;;;;;;0.40;0.40;;;;;;;11.40;62.02;97762.84;6331219;27;20710;-38
2023/02/19 08:59:19;;;;;;;0.57;0.53;;;;;;;11.16;61.87;97739.03;6327377;27;20443;-38
2023/02/19 09:02:22;;;;;;;0.50;0.50;;;;;;;11.36;61.97;97767.84;6330461;27;20355;-38
2023/02/19 09:05:24;;;;;;;0.40;0.40;;;;;;;11.40;62.47;97758.31;6312238;28;20232;-38
2023/02/19 09:08:26;;;;;;;0.60;0.40;;;;;;;11.42;62.77;97768.72;6330400;27;20220;-38
2023/02/19 09:11:28;;;;;;;1.23;0.53;;;;;;;11.50;62.37;97779.81;6328792;27;20715;-38
2023/02/19 09:14:32;;;;;;;0.73;0.50;;;;;;;11.53;63.45;97773.19;6322532;27;20224;-38
2023/02/19 09:17:34;;;;;;;0.40;0.40;;;;;;;11.72;61.36;97774.50;6326830;28;20758;-38
2023/02/19 09:20:36;;;;;;;0.60;0.57;;;;;;;11.48;62.28;97746.44;6324672;28;20241;-38
2023/02/19 09:23:38;;;;;;;0.63;0.60;;;;;;;11.61;63.68;97786.88;6310852;28;20312;-38
2023/02/19 09:26:40;;;;;;;0.70;0.60;;;;;;;11.15;66.53;97792.59;6326938;28;20238;-37
2023/02/19 09:29:42;;;;;;;1.37;0.40;;;;;;;10.97;69.45;97791.78;6328368;27;20316;-38
2023/02/19 09:32:44;;;;;;;1.00;0.60;;;;;;;10.74;70.62;97794.59;6327896;28;20593;-38
2023/02/19 09:35:47;;;;;;;0.83;0.70;;;;;;;10.75;69.24;97798.88;6327462;28;20228;-37
2023/02/19 09:38:49;;;;;;;0.60;0.60;;;;;;;10.48;71.25;97799.44;6327472;28;20224;-38
2023/02/19 09:41:56;;;;;;;2.53;0.60;;;;;;;10.23;72.44;97785.63;6323429;28;20336;-38
2023/02/19 09:45:00;;;;;;;0.90;0.83;;;;;;;10.04;73.14;97785.78;6326880;28;20281;-38
2023/02/19 09:48:05;;;;;;;1.47;0.80;;;;;;;9.83;73.43;97757.13;6311826;28;20237;-38
2023/02/19 09:51:09;;;;;;;1.20;0.80;;;;;;;9.95;73.18;97775.72;6326141;27;20566;-37
2023/02/19 09:54:22;;;;;;;1.03;0.80;;;;;;;9.93;74.19;97748.56;6327624;27;20571;-38
2023/02/19 09:57:28;;;;;;;0.60;0.60;;;;;;;10.00;73.75;97746.56;6301013;28;20278;-38
2023/02/19 10:00:33;;;;;;;0.60;0.60;;;;;;;10.17;73.42;97765.28;6329870;27;20240;-38
2023/02/19 10:03:40;;;;;;;1.13;0.70;;;;;;;10.41;72.90;97763.34;6329355;27;20711;-38
2023/02/19 10:06:42;;;;;;;0.60;0.60;;;;;;;10.54;72.23;97718.59;6325348;28;20231;-37
2023/02/19 10:09:51;;;;;;;1.87;0.53;;;;;;;11.52;68.99;97727.00;6326917;28;20281;-37
2023/02/19 10:12:59;;;;;;;1.80;0.70;;;;;;;12.02;67.84;97693.19;6324416;28;20227;-38
2023/02/19 10:16:04;;;;;;;0.43;0.43;;;;;;;12.83;65.75;97718.03;6321862;28;20228;-38
2023/02/19 10:19:11;;;;;;;0.43;0.43;;;;;;;12.97;62.04;97678.31;6327921;28;20237;-38
2023/02/19 10:22:13;;;;;;;0.30;0.30;;;;;;;13.57;61.68;97719.09;6327077;28;20324;-38
2023/02/19 10:25:16;;;;;;;0.30;0.30;;;;;;;13.76;59.86;97720.25;6326517;28;20246;-38
2023/02/19 10:28:22;;;;;;;2.43;0.53;;;;;;;13.86;57.89;97703.44;6318150;28;20244;-38
2023/02/19 10:31:24;;;;;;;0.20;0.20;;;;;;;14.03;56.98;97735.34;6310624;28;20243;-39
2023/02/19 10:34:27;;;;;;;0.30;0.30;;;;;;;14.27;55.64;97730.34;6334477;27;20695;-38
2023/02/19 10:37:29;;;;;;;0.33;0.30;;;;;;;14.38;53.88;97730.13;6342669;27;20240;-38
2023/02/19 10:40:32;;;;;;;0.30;0.30;;;;;;;14.23;51.58;97730.06;6328979;27;20232;-38
2023/02/19 10:43:39;;;;;;;0.20;0.20;;;;;;;14.07;52.83;97742.59;6331027;28;20242;-38
2023/02/19 10:46:48;;;;;;;0.30;0.30;;;;;;;13.85;52.73;97761.53;6299812;28;20232;-38
2023/02/19 10:49:54;;;;;;;0.30;0.20;;;;;;;13.90;53.24;97756.22;6333822;27;20229;-40
2023/02/19 10:52:59;;;;;;;1.03;0.30;;;;;;;14.06;50.95;97764.31;6334120;27;20714;-42
2023/02/19 10:56:08;;;;;;;0.30;0.30;;;;;;;14.33;51.20;97748.84;6328852;27;20248;-38
2023/02/19 10:59:17;;;;;;;1.40;0.40;;;;;;;14.14;52.05;97759.25;6331984;27;20232;-39
2023/02/19 11:02:20;;;;;;;0.20;0.20;;;;;;;13.73;53.59;97741.38;6331682;27;20829;-38
2023/02/19 11:05:23;;;;;;;0.30;0.30;;;;;;;13.75;53.38;97803.53;6332688;27;20248;-38
2023/02/19 11:08:26;;;;;;;0.30;0.30;;;;;;;13.80;53.08;97742.78;6332680;27;20220;-39
2023/02/19 11:11:31;;;;;;;0.87;0.40;;;;;;;13.62;53.61;97760.06;6318791;28;20374;-38
2023/02/19 11:14:34;;;;;;;0.47;0.47;;;;;;;12.93;54.66;97736.03;6331741;28;20236;-39
2023/02/19 11:17:36;;;;;;;0.40;0.40;;;;;;;12.86;54.84;97772.88;6332263;27;20244;-38
2023/02/19 11:20:48;;;;;;;0.40;0.40;;;;;;;12.93;55.39;97800.19;6328310;28;20236;-38
2023/02/19 11:23:50;;;;;;;0.60;0.40;;;;;;;13.26;54.30;97788.47;6325949;28;20236;-38
2023/02/19 11:26:54;;;;;;;1.70;0.40;;;;;;;13.65;53.23;97774.81;6326304;27;20255;-38
2023/02/19 11:30:34;;;;;;;0.87;0.60;;;;;;;13.74;53.82;97780.47;6330366;28;20335;-38
2023/02/19 11:33:44;;;;;;;0.60;0.57;;;;;;;14.30;52.14;97792.25;6322421;28;20925;-38
2023/02/19 11:37:06;;;;;;;0.73;0.50;;;;;;;14.03;54.30;97772.84;6333596;27;20229;-38
2023/02/19 11:40:11;;;;;;;0.50;0.50;;;;;;;14.06;51.88;97810.66;6328189;27;22525;-38
2023/02/19 11:43:25;;;;;;;0.70;0.50;;;;;;;13.76;52.00;97797.09;6335079;27;20278;-38
2023/02/19 11:46:45;;;;;;;0.43;0.30;;;;;;;13.47;52.58;97794.78;6334508;27;20246;-38
2023/02/19 11:49:47;;;;;;;0.50;0.50;;;;;;;13.39;53.09;97793.38;6330894;27;20259;-38
2023/02/19 11:53:30;;;;;;;0.40;0.40;;;;;;;13.44;52.98;97757.81;6331460;27;20595;-38
2023/02/19 11:56:36;;;;;;;1.00;0.50;;;;;;;13.38;53.21;97781.06;6331977;27;20580;-38
2023/02/19 11:59:54;;;;;;;0.50;0.50;;;;;;;13.46;52.25;97765.59;6311338;27;20365;-38
2023/02/19 12:03:15;;;;;;;0.57;0.50;;;;;;;13.25;52.56;97804.75;6325598;28;20214;-38
2023/02/19 12:06:46;;;;;;;0.50;0.50;;;;;;;12.88;52.16;97789.47;6323369;28;20213;-38
2023/02/19 12:10:16;;;;;;;0.30;0.30;;;;;;;12.60;54.00;97791.31;6325139;28;20244;-38
2023/02/19 12:13:25;;;;;;;1.07;0.60;;;;;;;12.14;54.00;97804.19;6324749;28;20211;-38
2023/02/19 12:16:58;;;;;;;0.40;0.40;;;;;;;12.12;55.81;97786.81;6327248;28;20264;-38
2023/02/19 12:20:21;;;;;;;0.30;0.30;;;;;;;11.83;57.35;97807.53;6325821;28;20244;-38
2023/02/19 12:23:58;;;;;;;0.80;0.40;;;;;;;11.79;57.43;97801.03;6324432;28;20716;-38
2023/02/19 12:27:18;;;;;;;0.77;0.50;;;;;;;12.05;56.20;97800.31;6324669;28;20237;-38
2023/02/19 12:30:52;;;;;;;0.30;0.30;;;;;;;12.26;56.08;97804.03;6325177;28;20232;-38
2023/02/19 12:34:23;;;;;;;0.40;0.33;;;;;;;12.70;54.33;97816.53;6325084;28;20648;-38
2023/02/19 12:37:47;;;;;;;0.30;0.30;;;;;;;12.99;52.84;97798.38;6324625;28;20308;-38
2023/02/19 12:41:16;;;;;;;0.30;0.30;;;;;;;13.45;53.69;97817.50;6327749;28;20229;-38
2023/02/19 12:44:44;;;;;;;0.40;0.40;;;;;;;13.42;51.43;97776.81;6323972;28;20236;-38
2023/02/19 12:47:59;;;;;;;0.50;0.37;;;;;;;13.50;51.72;97788.13;6295703;28;20228;-38
2023/02/19 12:51:09;;;;;;;0.30;0.30;;;;;;;13.29;51.77;97801.31;6326593;28;20298;-38
2023/02/19 12:54:22;;;;;;;0.40;0.40;;;;;;;13.14;51.39;97811.88;6328145;27;20286;-39
2023/02/19 12:57:34;;;;;;;0.40;0.40;;;;;;;13.13;51.74;97802.25;6328417;27;20240;-38
2023/02/19 13:00:45;;;;;;;0.20;0.20;;;;;;;13.27;51.66;97773.22;6327386;27;20230;-38
2023/02/19 13:04:14;;;;;;;0.83;0.40;;;;;;;13.39;51.47;97763.94;6325410;27;20241;-38
2023/02/19 13:07:46;;;;;;;0.30;0.30;;;;;;;13.58;49.32;97793.78;6325175;27;20263;-38
2023/02/19 13:11:05;;;;;;;1.43;0.40;;;;;;;13.29;49.35;97761.19;6324922;28;20702;-38
2023/02/19 13:14:19;;;;;;;0.50;0.33;;;;;;;13.18;49.38;97807.63;6319462;27;20862;-38
2023/02/19 13:17:44;;;;;;;0.20;0.20;;;;;;;12.91;50.67;97818.38;6325691;27;20229;-38
2023/02/19 13:20:50;;;;;;;0.50;0.50;;;;;;;12.97;50.43;97814.69;6325544;27;20233;-38
2023/02/19 13:24:00;;;;;;;0.20;0.20;;;;;;;12.69;51.75;97799.69;6323469;27;20740;-38
2023/02/19 13:27:19;;;;;;;0.43;0.40;;;;;;;12.72;51.60;97811.78;6326964;28;20703;-38
2023/02/19 13:31:13;;;;;;;0.47;0.47;;;;;;;12.53;52.60;97813.97;6299904;28;20948;-38
2023/02/19 13:34:46;;;;;;;0.40;0.40;;;;;;;12.37;53.72;97803.13;6273552;27;20703;-38
2023/02/19 13:37:50;;;;;;;0.30;0.30;;;;;;;12.22;52.50;97805.63;6326727;27;20229;-43
2023/02/19 13:40:59;;;;;;;0.43;0.40;;;;;;;12.13;53.13;97801.75;6330106;27;20225;-38
2023/02/19 13:44:04;;;;;;;0.33;0.30;;;;;;;12.29;52.87;97808.88;6324318;27;20676;-39
2023/02/19 13:47:45;;;;;;;0.30;0.30;;;;;;;12.32;52.67;97802.25;6330150;27;20221;-38
2023/02/19 13:50:49;;;;;;;0.80;0.30;;;;;;;12.44;52.81;97789.56;6325160;27;20776;-38
2023/02/19 13:53:54;;;;;;;0.30;0.30;;;;;;;12.27;51.87;97808.34;6326770;28;20217;-38
2023/02/19 13:57:25;;;;;;;0.33;0.30;;;;;;;12.18;52.73;97812.50;6328407;27;20249;-38
2023/02/19 14:00:49;;;;;;;0.20;0.20;;;;;;;12.16;52.02;97792.44;6316643;27;20229;-38
2023/02/19 14:04:06;;;;;;;0.30;0.30;;;;;;;12.12;52.73;97824.19;6328941;28;20233;-38
2023/02/19 14:07:09;;;;;;;0.30;0.30;;;;;;;11.95;51.79;97824.22;6323955;28;20233;-38
2023/02/19 14:10:33;;;;;;;0.30;0.30;;;;;;;11.72;52.95;97817.19;6326875;28;20246;-38
2023/02/19 14:13:50;;;;;;;0.40;0.30;;;;;;;11.65;53.14;97831.78;6320363;28;20324;-38
2023/02/19 14:17:06;;;;;;;1.17;0.30;;;;;;;11.59;53.05;97837.03;6321959;28;20230;-38
2023/02/19 14:20:44;;;;;;;0.30;0.30;;;;;;;11.52;53.00;97849.72;6325336;28;20394;-38
2023/02/19 14:23:53;;;;;;;0.40;0.40;;;;;;;11.48;53.30;97853.16;6321347;28;20318;-38
2023/02/19 14:26:59;;;;;;;0.47;0.40;;;;;;;11.39;53.85;97860.72;6323083;28;20232;-38
2023/02/19 14:30:03;;;;;;;0.40;0.40;;;;;;;11.34;54.14;97880.13;6325784;28;20258;-38
2023/02/19 14:33:09;;;;;;;0.40;0.30;;;;;;;11.17;55.71;97875.81;6310122;28;20210;-37
2023/02/19 14:36:32;;;;;;;0.70;0.50;;;;;;;10.98;56.70;97870.69;6322050;28;20209;-38
2023/02/19 14:39:37;;;;;;;0.30;0.30;;;;;;;10.97;57.47;97876.28;6316703;28;20721;-38
2023/02/19 14:42:41;;;;;;;1.87;0.50;;;;;;;10.84;59.81;97885.38;6330132;28;20231;-38
2023/02/19 14:45:49;;;;;;;0.67;0.60;;;;;;;10.69;61.69;97893.06;6325190;28;20375;-38
2023/02/19 14:48:53;;;;;;;0.50;0.50;;;;;;;10.58;62.08;97884.88;6306621;28;20767;-38
2023/02/19 14:52:03;;;;;;;1.03;0.67;;;;;;;10.05;63.32;97843.31;6325240;28;20316;-38
2023/02/19 14:55:13;;;;;;;0.50;0.50;;;;;;;10.28;63.45;97908.22;6325146;28;20444;-38
2023/02/19 14:58:23;;;;;;;0.70;0.37;;;;;;;10.30;62.81;97898.97;6327730;28;20236;-38
2023/02/19 15:01:27;;;;;;;0.73;0.60;;;;;;;9.95;64.88;97858.22;6327419;28;20236;-38
2023/02/19 15:04:36;;;;;;;1.43;0.50;;;;;;;10.05;66.32;97887.75;6321854;28;20245;-38
2023/02/19 15:07:41;;;;;;;0.40;0.40;;;;;;;10.13;64.50;97899.88;6328357;28;20246;-38
2023/02/19 15:10:44;;;;;;;0.83;0.50;;;;;;;10.09;64.96;97905.66;6330513;28;20247;-37
2023/02/19 15:13:54;;;;;;;0.60;0.47;;;;;;;9.99;65.98;97897.44;6324721;28;20234;-38